sensor_id;sensor_type;location;lat;lon;timestamp;temperature;humidity
20139;DHT22;10230;51.502;10.800;2023-06-19T09:00:49;27.30;99.90
20139;DHT22;10230;51.502;10.800;2023-06-19T09:05:45;29.80;99.90
20139;DHT22;10230;51.502;10.800;2023-06-19T09:08:15;30.00;99.90
20139;DHT22;10230;51.502;10.800;2023-06-19T09:10:57;31.90;90.10
20139;DHT22;10230;51.502;10.800;2023-06-19T09:13:23;33.10;85.30
20139;DHT22;10230;51.502;10.800;2023-06-19T09:16:01;33.90;79.20
20139;DHT22;10230;51.502;10.800;2023-06-19T09:18:29;34.00;75.80
20139;DHT22;10230;51.502;10.800;2023-06-19T09:25:50;36.20;65.60
20139;DHT22;10230;51.502;10.800;2023-06-19T09:30:59;38.80;57.50
20139;DHT22;10230;51.502;10.800;2023-06-19T09:33:30;41.20;52.10
20139;DHT22;10230;51.502;10.800;2023-06-19T09:40:53;45.60;42.10
20139;DHT22;10230;51.502;10.800;2023-06-19T09:43:23;46.00;41.10
20139;DHT22;10230;51.502;10.800;2023-06-19T09:45:50;46.40;38.50
20139;DHT22;10230;51.502;10.800;2023-06-19T09:48:22;46.30;38.10
20139;DHT22;10230;51.502;10.800;2023-06-19T09:50:55;46.50;37.60
20139;DHT22;10230;51.502;10.800;2023-06-19T09:53:24;46.70;36.10
20139;DHT22;10230;51.502;10.800;2023-06-19T09:55:50;46.40;35.30
20139;DHT22;10230;51.502;10.800;2023-06-19T09:58:20;46.00;35.50
20139;DHT22;10230;51.502;10.800;2023-06-19T10:00:47;45.20;36.20
20139;DHT22;10230;51.502;10.800;2023-06-19T10:03:15;45.20;36.20
20139;DHT22;10230;51.502;10.800;2023-06-19T10:05:42;45.80;35.70
20139;DHT22;10230;51.502;10.800;2023-06-19T10:08:08;46.60;34.70
20139;DHT22;10230;51.502;10.800;2023-06-19T10:10:34;47.30;34.00
20139;DHT22;10230;51.502;10.800;2023-06-19T10:13:14;48.20;33.20
20139;DHT22;10230;51.502;10.800;2023-06-19T10:15:41;49.20;31.90
20139;DHT22;10230;51.502;10.800;2023-06-19T10:18:16;50.40;30.90
20139;DHT22;10230;51.502;10.800;2023-06-19T10:20:42;50.90;30.10
20139;DHT22;10230;51.502;10.800;2023-06-19T10:23:15;50.80;29.90
20139;DHT22;10230;51.502;10.800;2023-06-19T10:25:48;50.70;29.60
20139;DHT22;10230;51.502;10.800;2023-06-19T10:31:08;49.90;29.40
20139;DHT22;10230;51.502;10.800;2023-06-19T10:33:37;50.40;29.10
20139;DHT22;10230;51.502;10.800;2023-06-19T10:36:21;52.10;27.60
20139;DHT22;10230;51.502;10.800;2023-06-19T10:38:51;52.80;27.00
20139;DHT22;10230;51.502;10.800;2023-06-19T10:41:18;52.80;27.50
20139;DHT22;10230;51.502;10.800;2023-06-19T10:44:16;53.30;27.10
20139;DHT22;10230;51.502;10.800;2023-06-19T10:46:42;53.20;27.00
20139;DHT22;10230;51.502;10.800;2023-06-19T10:49:09;53.40;26.80
20139;DHT22;10230;51.502;10.800;2023-06-19T10:51:37;53.60;26.50
20139;DHT22;10230;51.502;10.800;2023-06-19T10:54:04;52.80;26.90
20139;DHT22;10230;51.502;10.800;2023-06-19T10:56:30;52.60;27.00
20139;DHT22;10230;51.502;10.800;2023-06-19T10:59:06;52.60;27.20
20139;DHT22;10230;51.502;10.800;2023-06-19T11:01:38;52.70;27.00
20139;DHT22;10230;51.502;10.800;2023-06-19T11:04:15;52.50;26.80
20139;DHT22;10230;51.502;10.800;2023-06-19T11:06:42;50.70;27.20
20139;DHT22;10230;51.502;10.800;2023-06-19T11:09:10;49.60;28.30
20139;DHT22;10230;51.502;10.800;2023-06-19T11:11:42;49.70;28.50
20139;DHT22;10230;51.502;10.800;2023-06-19T11:14:09;50.40;28.30
20139;DHT22;10230;51.502;10.800;2023-06-19T11:16:37;51.20;27.90
20139;DHT22;10230;51.502;10.800;2023-06-19T11:19:03;51.20;27.30
20139;DHT22;10230;51.502;10.800;2023-06-19T11:21:36;50.80;27.80
20139;DHT22;10230;51.502;10.800;2023-06-19T11:24:05;50.40;28.00
20139;DHT22;10230;51.502;10.800;2023-06-19T11:26:42;50.20;28.20
20139;DHT22;10230;51.502;10.800;2023-06-19T11:29:28;50.00;28.40
20139;DHT22;10230;51.502;10.800;2023-06-19T11:34:35;47.10;29.80
20139;DHT22;10230;51.502;10.800;2023-06-19T11:37:11;43.80;43.10
20139;DHT22;10230;51.502;10.800;2023-06-19T11:39:37;41.70;34.90
20139;DHT22;10230;51.502;10.800;2023-06-19T11:42:03;41.40;35.70
20139;DHT22;10230;51.502;10.800;2023-06-19T11:44:28;39.70;37.90
20139;DHT22;10230;51.502;10.800;2023-06-19T11:46:57;38.70;39.90
20139;DHT22;10230;51.502;10.800;2023-06-19T11:49:26;38.70;40.40
20139;DHT22;10230;51.502;10.800;2023-06-19T11:51:52;38.90;40.00
20139;DHT22;10230;51.502;10.800;2023-06-19T11:54:19;38.80;40.40
20139;DHT22;10230;51.502;10.800;2023-06-19T11:56:46;38.70;40.80
20139;DHT22;10230;51.502;10.800;2023-06-19T11:59:13;38.90;41.00
20139;DHT22;10230;51.502;10.800;2023-06-19T12:01:40;38.60;40.80
20139;DHT22;10230;51.502;10.800;2023-06-19T12:04:05;38.30;41.50
20139;DHT22;10230;51.502;10.800;2023-06-19T12:06:31;38.10;42.10
20139;DHT22;10230;51.502;10.800;2023-06-19T12:08:57;38.20;42.10
20139;DHT22;10230;51.502;10.800;2023-06-19T12:11:23;38.30;41.60
20139;DHT22;10230;51.502;10.800;2023-06-19T12:13:50;38.50;41.70
20139;DHT22;10230;51.502;10.800;2023-06-19T12:16:15;39.00;41.30
20139;DHT22;10230;51.502;10.800;2023-06-19T12:18:41;39.10;40.70
20139;DHT22;10230;51.502;10.800;2023-06-19T12:21:07;39.10;41.00
20139;DHT22;10230;51.502;10.800;2023-06-19T12:23:33;39.10;41.00
20139;DHT22;10230;51.502;10.800;2023-06-19T12:25:58;39.60;40.00
20139;DHT22;10230;51.502;10.800;2023-06-19T12:28:24;39.70;40.50
20139;DHT22;10230;51.502;10.800;2023-06-19T12:30:51;39.70;40.40
20139;DHT22;10230;51.502;10.800;2023-06-19T12:33:18;39.70;40.60
20139;DHT22;10230;51.502;10.800;2023-06-19T12:35:44;39.20;40.80
20139;DHT22;10230;51.502;10.800;2023-06-19T12:38:10;38.80;41.40
20139;DHT22;10230;51.502;10.800;2023-06-19T12:40:37;38.90;42.40
20139;DHT22;10230;51.502;10.800;2023-06-19T12:43:03;38.80;41.70
20139;DHT22;10230;51.502;10.800;2023-06-19T12:45:28;38.30;42.30
20139;DHT22;10230;51.502;10.800;2023-06-19T12:47:54;37.40;43.50
20139;DHT22;10230;51.502;10.800;2023-06-19T12:50:20;36.70;44.40
20139;DHT22;10230;51.502;10.800;2023-06-19T12:52:45;36.40;45.40
20139;DHT22;10230;51.502;10.800;2023-06-19T12:55:11;36.30;45.80
20139;DHT22;10230;51.502;10.800;2023-06-19T12:57:37;36.20;45.70
20139;DHT22;10230;51.502;10.800;2023-06-19T13:00:03;36.00;46.30
20139;DHT22;10230;51.502;10.800;2023-06-19T13:02:33;36.00;46.50
20139;DHT22;10230;51.502;10.800;2023-06-19T13:04:59;36.20;46.30
20139;DHT22;10230;51.502;10.800;2023-06-19T13:07:25;36.50;46.20
20139;DHT22;10230;51.502;10.800;2023-06-19T13:09:50;36.70;45.80
20139;DHT22;10230;51.502;10.800;2023-06-19T13:12:16;36.90;45.70
20139;DHT22;10230;51.502;10.800;2023-06-19T13:14:41;36.70;45.70
20139;DHT22;10230;51.502;10.800;2023-06-19T13:17:07;36.50;46.20
20139;DHT22;10230;51.502;10.800;2023-06-19T13:19:33;36.40;46.50
20139;DHT22;10230;51.502;10.800;2023-06-19T13:21:59;36.50;46.90
20139;DHT22;10230;51.502;10.800;2023-06-19T13:24:24;36.40;47.00
20139;DHT22;10230;51.502;10.800;2023-06-19T13:26:53;36.30;47.20
20139;DHT22;10230;51.502;10.800;2023-06-19T13:29:19;36.00;47.70
20139;DHT22;10230;51.502;10.800;2023-06-19T13:34:10;35.20;48.50
20139;DHT22;10230;51.502;10.800;2023-06-19T13:36:36;34.50;50.10
20139;DHT22;10230;51.502;10.800;2023-06-19T13:39:02;34.20;50.60
20139;DHT22;10230;51.502;10.800;2023-06-19T13:41:28;34.40;50.60
20139;DHT22;10230;51.502;10.800;2023-06-19T13:43:56;34.80;50.30
20139;DHT22;10230;51.502;10.800;2023-06-19T13:46:22;34.90;50.30
20139;DHT22;10230;51.502;10.800;2023-06-19T13:48:48;34.80;50.40
20139;DHT22;10230;51.502;10.800;2023-06-19T13:51:19;34.50;50.90
20139;DHT22;10230;51.502;10.800;2023-06-19T13:53:45;34.10;51.50
20139;DHT22;10230;51.502;10.800;2023-06-19T13:56:12;33.50;52.20
20139;DHT22;10230;51.502;10.800;2023-06-19T13:58:38;33.20;52.40
20139;DHT22;10230;51.502;10.800;2023-06-19T14:01:04;33.10;52.80
20139;DHT22;10230;51.502;10.800;2023-06-19T14:03:30;32.70;54.00
20139;DHT22;10230;51.502;10.800;2023-06-19T14:05:56;32.50;54.90
20139;DHT22;10230;51.502;10.800;2023-06-19T14:08:22;32.60;56.00
20139;DHT22;10230;51.502;10.800;2023-06-19T14:10:49;32.70;55.70
20139;DHT22;10230;51.502;10.800;2023-06-19T14:13:15;32.80;55.50
20139;DHT22;10230;51.502;10.800;2023-06-19T14:15:41;33.00;55.70
20139;DHT22;10230;51.502;10.800;2023-06-19T14:18:07;33.10;55.70
20139;DHT22;10230;51.502;10.800;2023-06-19T14:20:32;33.20;55.80
20139;DHT22;10230;51.502;10.800;2023-06-19T14:22:58;32.90;55.60
20139;DHT22;10230;51.502;10.800;2023-06-19T14:27:52;32.30;67.50
20139;DHT22;10230;51.502;10.800;2023-06-19T14:30:18;32.10;53.90
20139;DHT22;10230;51.502;10.800;2023-06-19T14:32:44;31.90;54.10
20139;DHT22;10230;51.502;10.800;2023-06-19T14:35:10;31.80;53.90
20139;DHT22;10230;51.502;10.800;2023-06-19T14:37:36;31.90;54.30
20139;DHT22;10230;51.502;10.800;2023-06-19T14:40:02;32.00;54.40
20139;DHT22;10230;51.502;10.800;2023-06-19T14:42:28;31.90;53.60
